Strona główna
METAR-TAF:

METAR-TAF

Lotnisko :

Port lotniczy Mitiga

Trypolis, Libia

Szerokość geograficzna: 32-54N, Długość geograficzna: 13-17E, wysokość: 11 m

Aktualna obserwacja pogody

Raport powstał 33 minut temu, godzina 22:50 UTC
Wiatr 6 kt od południowy wschód
Temperatura 24°C
Wilgotność 74%
Ciśnienie 1016 hPa
Widzialność: 7000 m
bezchmurnie

METAR: HLLM 232250Z 13006KT 7000 SKC 24/19 Q1016

czas: 01:23 (23:23 UTC)

Prognoza

Raport powstał 18 godziny i 23 minut temu, godzina 05:00 UTC
Prognoza ważna od 23 godzina 06 UTC do 24 godzina 06 UTC
Wiatr 2 kt z kierunków zmiennych
Widzialność: 8000 m
Stopniowe zmiany
od 23 godzina 10 UTC do 23 godzina 12 UTC
Wiatr 10 kt od wschodnio-północny wschód

TAF: HLLM 230500Z 2306/2406 VRB02KT 8000 NSC BECMG 2310/2312 06010KT

Obserwacja i prognoza pogody dla ponad 4000 lotnisk (raport METAR i TAF).

Dostępne stacje oznaczono żółtymi i czerwonymi punktami na mapie.

Najedź kursorem aby zobaczyć nazwę stacji.

Kliknij aby zobaczyć obserwacje i prognozy pogody.

Aby zmienić mapę: kliknij na zielony przycisk z czarnym krzyżykiem, aby powiększyć; na zielony przycisk z myślnikiem, aby pomniejszyć; na zielone strzałki, aby przejść do map sąsiednich.


METAR-TAF: